BOX511 VOBL-VABB
Flight info
| Callsign | BOX511 |
|---|---|
| Flight time | 1h 9m |
| Altitude | 34000 |
| Route | VAGPU8A VAGPU Q8 AGELA MOLGO2A |
| Aircraft | B77L/H-SDE1E2E3FGHIJ2J3J4J5M1RWXY/LB1D1 |
Departure
| Time | 2026-05-08 12:37 |
|---|---|
| Airport | Kempegowda International Airport Bengaluru (VOBL) |
Arrival
| Time | 2026-05-08 13:47 |
|---|---|
| Airport | Chhatrapati Shivaji Maharaj International Airport (VABB) |
| Time | Latitude | Longitude | Altitude | Speed | Heading |
|---|---|---|---|---|---|
| 2026-05-08 11:51 | 13.20186 | 77.69673 | 2978 ft | 0 kts | 181° |
| 2026-05-08 12:24 | 13.20187 | 77.69673 | 2978 ft | 0 kts | 181° |
| 2026-05-08 12:25 | 13.20195 | 77.69675 | 2978 ft | 2 kts | 206° |
| 2026-05-08 12:25 | 13.20212 | 77.69679 | 2979 ft | 2 kts | 179° |
| 2026-05-08 12:26 | 13.20229 | 77.69679 | 2979 ft | 2 kts | 194° |
| 2026-05-08 12:26 | 13.20244 | 77.69685 | 2980 ft | 2 kts | 211° |
| 2026-05-08 12:26 | 13.20256 | 77.69694 | 2980 ft | 2 kts | 225° |
| 2026-05-08 12:26 | 13.20267 | 77.69708 | 2980 ft | 2 kts | 241° |
| 2026-05-08 12:27 | 13.20273 | 77.69722 | 2980 ft | 2 kts | 255° |
| 2026-05-08 12:27 | 13.20276 | 77.69738 | 2980 ft | 1 kts | 269° |
| 2026-05-08 12:27 | 13.20276 | 77.69742 | 2980 ft | 0 kts | 271° |
| 2026-05-08 12:30 | 13.20276 | 77.69727 | 2980 ft | 4 kts | 271° |
| 2026-05-08 12:30 | 13.20275 | 77.69685 | 2981 ft | 6 kts | 268° |
| 2026-05-08 12:30 | 13.20273 | 77.69629 | 2982 ft | 6 kts | 269° |
| 2026-05-08 12:30 | 13.20272 | 77.69591 | 2984 ft | 3 kts | 269° |
| 2026-05-08 12:31 | 13.20272 | 77.69572 | 2985 ft | 3 kts | 271° |
| 2026-05-08 12:31 | 13.20273 | 77.69540 | 2986 ft | 5 kts | 271° |
| 2026-05-08 12:31 | 13.20273 | 77.69495 | 2987 ft | 6 kts | 271° |
| 2026-05-08 12:31 | 13.20274 | 77.69438 | 2990 ft | 8 kts | 271° |
| 2026-05-08 12:32 | 13.20280 | 77.69371 | 2992 ft | 9 kts | 288° |
| 2026-05-08 12:32 | 13.20328 | 77.69335 | 2995 ft | 8 kts | 352° |
| 2026-05-08 12:32 | 13.20400 | 77.69334 | 2997 ft | 10 kts | 1° |
| 2026-05-08 12:32 | 13.20480 | 77.69335 | 2998 ft | 10 kts | 1° |
| 2026-05-08 12:33 | 13.20538 | 77.69295 | 3001 ft | 10 kts | 286° |
| 2026-05-08 12:33 | 13.20542 | 77.69210 | 3003 ft | 12 kts | 270° |
| 2026-05-08 12:33 | 13.20542 | 77.69104 | 3005 ft | 14 kts | 270° |
| 2026-05-08 12:33 | 13.20543 | 77.68980 | 3007 ft | 16 kts | 270° |
| 2026-05-08 12:34 | 13.20545 | 77.68851 | 3009 ft | 15 kts | 270° |
| 2026-05-08 12:34 | 13.20546 | 77.68742 | 3010 ft | 12 kts | 271° |
| 2026-05-08 12:34 | 13.20548 | 77.68658 | 3011 ft | 7 kts | 286° |
| 2026-05-08 12:34 | 13.20586 | 77.68623 | 3011 ft | 6 kts | 342° |
| 2026-05-08 12:35 | 13.20633 | 77.68617 | 3011 ft | 5 kts | 359° |
| 2026-05-08 12:35 | 13.20673 | 77.68619 | 3011 ft | 4 kts | 20° |
| 2026-05-08 12:35 | 13.20698 | 77.68638 | 3011 ft | 3 kts | 43° |
| 2026-05-08 12:35 | 13.20710 | 77.68658 | 3011 ft | 3 kts | 72° |
| 2026-05-08 12:36 | 13.20715 | 77.68695 | 3011 ft | 6 kts | 91° |
| 2026-05-08 12:36 | 13.20715 | 77.68697 | 3011 ft | 1 kts | 91° |
| 2026-05-08 12:36 | 13.20713 | 77.68886 | 3010 ft | 59 kts | 90° |
| 2026-05-08 12:36 | 13.20708 | 77.69582 | 3000 ft | 128 kts | 90° |
| 2026-05-08 12:37 | 13.20703 | 77.70749 | 2970 ft | 189 kts | 89° |
| 2026-05-08 12:37 | 13.20670 | 77.72286 | 3355 ft | 210 kts | 90° |
| 2026-05-08 12:37 | 13.20805 | 77.73872 | 4444 ft | 202 kts | 70° |
| 2026-05-08 12:37 | 13.21510 | 77.75191 | 4968 ft | 210 kts | 49° |
| 2026-05-08 12:38 | 13.22638 | 77.76388 | 5103 ft | 238 kts | 50° |
| 2026-05-08 12:38 | 13.23722 | 77.77954 | 5509 ft | 256 kts | 59° |
| 2026-05-08 12:38 | 13.24710 | 77.79652 | 6109 ft | 265 kts | 60° |
| 2026-05-08 12:38 | 13.25656 | 77.81312 | 6845 ft | 267 kts | 58° |
| 2026-05-08 12:39 | 13.27021 | 77.82748 | 7471 ft | 274 kts | 32° |
| 2026-05-08 12:39 | 13.28928 | 77.83426 | 8112 ft | 282 kts | 8° |
| 2026-05-08 12:39 | 13.30996 | 77.83523 | 8879 ft | 283 kts | 0° |
| 2026-05-08 12:39 | 13.33030 | 77.83070 | 9493 ft | 291 kts | 337° |
| 2026-05-08 12:40 | 13.34868 | 77.82064 | 10169 ft | 294 kts | 332° |
| 2026-05-08 12:40 | 13.36764 | 77.80935 | 10551 ft | 310 kts | 332° |
| 2026-05-08 12:40 | 13.38730 | 77.79774 | 10892 ft | 328 kts | 332° |
| 2026-05-08 12:40 | 13.40818 | 77.78552 | 11268 ft | 344 kts | 332° |
| 2026-05-08 12:41 | 13.43041 | 77.77254 | 11689 ft | 360 kts | 332° |
| 2026-05-08 12:41 | 13.45371 | 77.75895 | 12129 ft | 375 kts | 332° |
| 2026-05-08 12:41 | 13.47751 | 77.74506 | 12712 ft | 385 kts | 332° |
| 2026-05-08 12:41 | 13.50242 | 77.73052 | 13511 ft | 390 kts | 331° |
| 2026-05-08 12:42 | 13.52739 | 77.71595 | 14363 ft | 394 kts | 331° |
| 2026-05-08 12:42 | 13.55248 | 77.70129 | 15208 ft | 399 kts | 330° |
| 2026-05-08 12:42 | 13.57826 | 77.68623 | 16093 ft | 403 kts | 330° |
| 2026-05-08 12:42 | 13.60451 | 77.67090 | 16920 ft | 408 kts | 330° |
| 2026-05-08 12:43 | 13.63113 | 77.65534 | 17743 ft | 413 kts | 330° |
| 2026-05-08 12:43 | 13.65832 | 77.63944 | 18511 ft | 418 kts | 330° |
| 2026-05-08 12:43 | 13.68573 | 77.62342 | 19291 ft | 423 kts | 330° |
| 2026-05-08 12:43 | 13.71394 | 77.60692 | 20070 ft | 427 kts | 330° |
| 2026-05-08 12:44 | 13.74169 | 77.59069 | 20807 ft | 431 kts | 330° |
| 2026-05-08 12:44 | 13.76949 | 77.57443 | 21489 ft | 436 kts | 330° |
| 2026-05-08 12:44 | 13.79728 | 77.55816 | 22151 ft | 441 kts | 330° |
| 2026-05-08 12:44 | 13.82527 | 77.54177 | 22825 ft | 445 kts | 330° |
| 2026-05-08 12:45 | 13.85300 | 77.52553 | 23486 ft | 449 kts | 330° |
| 2026-05-08 12:45 | 13.88255 | 77.50822 | 24099 ft | 454 kts | 330° |
| 2026-05-08 12:45 | 13.91127 | 77.49139 | 24675 ft | 460 kts | 330° |
| 2026-05-08 12:45 | 13.93945 | 77.47488 | 25302 ft | 464 kts | 330° |
| 2026-05-08 12:46 | 13.96750 | 77.45843 | 25933 ft | 468 kts | 330° |
| 2026-05-08 12:46 | 13.99632 | 77.44154 | 26519 ft | 473 kts | 330° |
| 2026-05-08 12:46 | 14.02598 | 77.42413 | 27119 ft | 478 kts | 330° |
| 2026-05-08 12:46 | 14.05570 | 77.40669 | 27726 ft | 483 kts | 330° |
| 2026-05-08 12:47 | 14.08569 | 77.38909 | 28315 ft | 488 kts | 330° |
| 2026-05-08 12:47 | 14.11556 | 77.37155 | 28898 ft | 493 kts | 329° |
| 2026-05-08 12:47 | 14.14590 | 77.35373 | 29519 ft | 497 kts | 329° |
| 2026-05-08 12:47 | 14.17635 | 77.33584 | 30302 ft | 496 kts | 329° |
| 2026-05-08 12:48 | 14.20756 | 77.31750 | 31175 ft | 494 kts | 329° |
| 2026-05-08 12:48 | 14.23812 | 77.29954 | 31971 ft | 492 kts | 329° |
| 2026-05-08 12:48 | 14.26778 | 77.28210 | 32690 ft | 492 kts | 329° |
| 2026-05-08 12:48 | 14.29758 | 77.26457 | 33454 ft | 491 kts | 329° |
| 2026-05-08 12:49 | 14.32723 | 77.24712 | 33877 ft | 493 kts | 329° |
| 2026-05-08 12:49 | 14.35708 | 77.22955 | 33886 ft | 491 kts | 329° |
| 2026-05-08 12:49 | 14.41977 | 77.19263 | 33880 ft | 488 kts | 329° |
| 2026-05-08 12:50 | 14.48445 | 77.15452 | 33874 ft | 488 kts | 329° |
| 2026-05-08 12:50 | 14.54815 | 77.11695 | 33868 ft | 488 kts | 329° |
| 2026-05-08 12:51 | 14.64538 | 77.07121 | 33863 ft | 489 kts | 340° |
| 2026-05-08 12:52 | 14.71347 | 77.04642 | 33859 ft | 489 kts | 340° |
| 2026-05-08 12:52 | 14.81491 | 77.00943 | 33852 ft | 489 kts | 340° |
| 2026-05-08 12:53 | 14.88118 | 76.98522 | 33847 ft | 489 kts | 340° |
| 2026-05-08 12:53 | 14.94821 | 76.96070 | 33850 ft | 489 kts | 340° |
| 2026-05-08 12:54 | 15.01549 | 76.93607 | 33853 ft | 489 kts | 340° |
| 2026-05-08 12:54 | 15.08152 | 76.91188 | 33851 ft | 488 kts | 339° |
| 2026-05-08 12:55 | 15.14669 | 76.88799 | 33848 ft | 488 kts | 339° |
| 2026-05-08 12:55 | 15.21114 | 76.86434 | 33847 ft | 488 kts | 339° |
| 2026-05-08 12:56 | 15.27713 | 76.84012 | 33840 ft | 488 kts | 339° |
| 2026-05-08 12:56 | 15.34518 | 76.81512 | 33843 ft | 487 kts | 339° |
| 2026-05-08 12:57 | 15.41398 | 76.78982 | 33837 ft | 487 kts | 339° |
| 2026-05-08 12:57 | 15.48220 | 76.76473 | 33835 ft | 486 kts | 339° |
| 2026-05-08 12:58 | 15.55156 | 76.73920 | 33833 ft | 486 kts | 339° |
| 2026-05-08 12:58 | 15.62090 | 76.71365 | 33833 ft | 486 kts | 339° |
| 2026-05-08 12:59 | 15.68693 | 76.67976 | 33837 ft | 482 kts | 322° |
| 2026-05-08 12:59 | 15.73932 | 76.62531 | 33849 ft | 480 kts | 307° |
| 2026-05-08 13:00 | 15.78549 | 76.56441 | 33851 ft | 479 kts | 307° |
| 2026-05-08 13:00 | 15.83105 | 76.50401 | 33861 ft | 478 kts | 307° |
| 2026-05-08 13:01 | 15.87614 | 76.44411 | 33870 ft | 478 kts | 307° |
| 2026-05-08 13:01 | 15.92115 | 76.38423 | 33879 ft | 478 kts | 307° |
| 2026-05-08 13:02 | 15.96702 | 76.32316 | 33884 ft | 477 kts | 307° |
| 2026-05-08 13:02 | 16.01256 | 76.26246 | 33887 ft | 476 kts | 307° |
| 2026-05-08 13:03 | 16.05820 | 76.20158 | 33890 ft | 476 kts | 307° |
| 2026-05-08 13:03 | 16.10346 | 76.14116 | 33888 ft | 476 kts | 307° |
| 2026-05-08 13:04 | 16.14955 | 76.07957 | 33884 ft | 475 kts | 307° |
| 2026-05-08 13:04 | 16.19534 | 76.01832 | 33881 ft | 475 kts | 307° |
| 2026-05-08 13:05 | 16.23829 | 75.96082 | 33877 ft | 474 kts | 307° |
| 2026-05-08 13:05 | 16.27915 | 75.90609 | 33878 ft | 475 kts | 307° |
| 2026-05-08 13:06 | 16.32000 | 75.85133 | 33881 ft | 475 kts | 307° |
| 2026-05-08 13:06 | 16.36099 | 75.79633 | 33881 ft | 474 kts | 307° |
| 2026-05-08 13:07 | 16.40359 | 75.73913 | 33883 ft | 474 kts | 307° |
| 2026-05-08 13:07 | 16.44491 | 75.68361 | 33884 ft | 475 kts | 307° |
| 2026-05-08 13:08 | 16.48572 | 75.62873 | 33881 ft | 473 kts | 307° |
| 2026-05-08 13:08 | 16.52660 | 75.57371 | 33881 ft | 473 kts | 307° |
| 2026-05-08 13:09 | 16.56852 | 75.51725 | 33883 ft | 474 kts | 307° |
| 2026-05-08 13:09 | 16.61162 | 75.45918 | 33884 ft | 473 kts | 307° |
| 2026-05-08 13:10 | 16.65599 | 75.40059 | 33888 ft | 473 kts | 307° |
| 2026-05-08 13:10 | 16.69855 | 75.34445 | 33890 ft | 473 kts | 307° |
| 2026-05-08 13:11 | 16.74082 | 75.28863 | 33893 ft | 472 kts | 307° |
| 2026-05-08 13:11 | 16.78290 | 75.23298 | 33893 ft | 472 kts | 307° |
| 2026-05-08 13:12 | 16.82525 | 75.17693 | 33896 ft | 472 kts | 307° |
| 2026-05-08 13:12 | 16.86848 | 75.11966 | 33899 ft | 471 kts | 307° |
| 2026-05-08 13:13 | 16.90938 | 75.06541 | 33902 ft | 472 kts | 307° |
| 2026-05-08 13:13 | 16.94991 | 75.01163 | 33904 ft | 471 kts | 307° |
| 2026-05-08 13:14 | 16.99049 | 74.95776 | 33407 ft | 462 kts | 307° |
| 2026-05-08 13:14 | 17.01028 | 74.93145 | 32384 ft | 469 kts | 307° |
| 2026-05-08 13:14 | 17.03074 | 74.90424 | 31163 ft | 480 kts | 307° |
| 2026-05-08 13:15 | 17.05160 | 74.87650 | 30063 ft | 488 kts | 307° |
| 2026-05-08 13:15 | 17.07262 | 74.84853 | 29282 ft | 489 kts | 308° |
| 2026-05-08 13:15 | 17.09373 | 74.82044 | 28744 ft | 488 kts | 308° |
| 2026-05-08 13:15 | 17.11488 | 74.79227 | 28382 ft | 485 kts | 308° |
| 2026-05-08 13:16 | 17.13580 | 74.76441 | 28162 ft | 479 kts | 308° |
| 2026-05-08 13:16 | 17.15686 | 74.73634 | 27868 ft | 473 kts | 308° |
| 2026-05-08 13:16 | 17.17740 | 74.70897 | 27438 ft | 471 kts | 308° |
| 2026-05-08 13:16 | 17.19785 | 74.68169 | 26984 ft | 470 kts | 308° |
| 2026-05-08 13:17 | 17.21823 | 74.65449 | 26615 ft | 467 kts | 308° |
| 2026-05-08 13:17 | 17.23876 | 74.62709 | 26272 ft | 464 kts | 308° |
| 2026-05-08 13:17 | 17.25985 | 74.59893 | 25894 ft | 461 kts | 308° |
| 2026-05-08 13:17 | 17.28010 | 74.57188 | 25496 ft | 459 kts | 308° |
| 2026-05-08 13:18 | 17.30057 | 74.54452 | 25139 ft | 456 kts | 308° |
| 2026-05-08 13:18 | 17.32167 | 74.51631 | 24763 ft | 453 kts | 309° |
| 2026-05-08 13:18 | 17.34296 | 74.48783 | 24349 ft | 451 kts | 309° |
| 2026-05-08 13:18 | 17.36409 | 74.45956 | 23973 ft | 449 kts | 309° |
| 2026-05-08 13:19 | 17.38365 | 74.43338 | 23654 ft | 446 kts | 309° |
| 2026-05-08 13:19 | 17.40397 | 74.40616 | 23337 ft | 443 kts | 309° |
| 2026-05-08 13:19 | 17.42472 | 74.37837 | 22991 ft | 441 kts | 309° |
| 2026-05-08 13:19 | 17.44579 | 74.35014 | 22677 ft | 438 kts | 309° |
| 2026-05-08 13:20 | 17.46628 | 74.32266 | 22341 ft | 436 kts | 309° |
| 2026-05-08 13:20 | 17.48708 | 74.29476 | 22033 ft | 434 kts | 309° |
| 2026-05-08 13:20 | 17.50749 | 74.26736 | 21746 ft | 432 kts | 309° |
| 2026-05-08 13:20 | 17.52823 | 74.23953 | 21398 ft | 431 kts | 309° |
| 2026-05-08 13:21 | 17.54865 | 74.21210 | 21070 ft | 431 kts | 309° |
| 2026-05-08 13:21 | 17.56903 | 74.18473 | 20774 ft | 429 kts | 309° |
| 2026-05-08 13:21 | 17.58931 | 74.15747 | 20482 ft | 428 kts | 309° |
| 2026-05-08 13:21 | 17.60948 | 74.13034 | 20164 ft | 428 kts | 309° |
| 2026-05-08 13:22 | 17.62950 | 74.10341 | 19882 ft | 426 kts | 309° |
| 2026-05-08 13:22 | 17.64950 | 74.07650 | 19596 ft | 425 kts | 309° |
| 2026-05-08 13:22 | 17.66937 | 74.04975 | 19314 ft | 425 kts | 308° |
| 2026-05-08 13:22 | 17.68904 | 74.02326 | 19028 ft | 424 kts | 309° |
| 2026-05-08 13:23 | 17.70882 | 73.99661 | 18763 ft | 423 kts | 308° |
| 2026-05-08 13:23 | 17.72793 | 73.97085 | 18503 ft | 422 kts | 309° |
| 2026-05-08 13:23 | 17.74692 | 73.94524 | 18257 ft | 421 kts | 309° |
| 2026-05-08 13:23 | 17.76651 | 73.91882 | 18001 ft | 420 kts | 309° |
| 2026-05-08 13:24 | 17.78595 | 73.89259 | 17736 ft | 420 kts | 309° |
| 2026-05-08 13:24 | 17.80526 | 73.86652 | 17494 ft | 420 kts | 309° |
| 2026-05-08 13:24 | 17.82437 | 73.84070 | 17253 ft | 419 kts | 309° |
| 2026-05-08 13:24 | 17.84364 | 73.81466 | 17031 ft | 418 kts | 309° |
| 2026-05-08 13:25 | 17.86267 | 73.78895 | 16843 ft | 416 kts | 309° |
| 2026-05-08 13:25 | 17.88164 | 73.76329 | 16633 ft | 415 kts | 309° |
| 2026-05-08 13:25 | 17.90045 | 73.73785 | 16425 ft | 414 kts | 309° |
| 2026-05-08 13:25 | 17.91869 | 73.71318 | 16200 ft | 412 kts | 309° |
| 2026-05-08 13:26 | 17.93686 | 73.68857 | 15914 ft | 411 kts | 309° |
| 2026-05-08 13:26 | 17.95496 | 73.66407 | 15618 ft | 410 kts | 309° |
| 2026-05-08 13:26 | 17.97264 | 73.64011 | 15314 ft | 408 kts | 309° |
| 2026-05-08 13:26 | 17.98977 | 73.61689 | 14976 ft | 400 kts | 309° |
| 2026-05-08 13:27 | 18.00680 | 73.59380 | 14493 ft | 396 kts | 309° |
| 2026-05-08 13:27 | 18.02370 | 73.57089 | 13935 ft | 394 kts | 309° |
| 2026-05-08 13:27 | 18.04052 | 73.54806 | 13374 ft | 392 kts | 309° |
| 2026-05-08 13:27 | 18.05731 | 73.52528 | 12826 ft | 390 kts | 309° |
| 2026-05-08 13:28 | 18.07383 | 73.50285 | 12644 ft | 377 kts | 309° |
| 2026-05-08 13:28 | 18.08989 | 73.48102 | 12557 ft | 362 kts | 309° |
| 2026-05-08 13:28 | 18.10530 | 73.46010 | 12418 ft | 350 kts | 309° |
| 2026-05-08 13:28 | 18.12016 | 73.43989 | 12335 ft | 338 kts | 309° |
| 2026-05-08 13:29 | 18.13448 | 73.42042 | 12207 ft | 329 kts | 309° |
| 2026-05-08 13:29 | 18.14855 | 73.40131 | 12016 ft | 320 kts | 310° |
| 2026-05-08 13:29 | 18.16535 | 73.38479 | 11826 ft | 304 kts | 331° |
| 2026-05-08 13:29 | 18.18587 | 73.37382 | 11770 ft | 307 kts | 338° |
| 2026-05-08 13:30 | 18.20666 | 73.36435 | 11616 ft | 305 kts | 339° |
| 2026-05-08 13:30 | 18.22739 | 73.35512 | 11467 ft | 303 kts | 339° |
| 2026-05-08 13:30 | 18.24715 | 73.34631 | 11349 ft | 302 kts | 339° |
| 2026-05-08 13:30 | 18.26680 | 73.33754 | 11288 ft | 303 kts | 339° |
| 2026-05-08 13:31 | 18.28616 | 73.32890 | 11206 ft | 304 kts | 339° |
| 2026-05-08 13:31 | 18.30609 | 73.31998 | 11062 ft | 303 kts | 339° |
| 2026-05-08 13:31 | 18.32548 | 73.31131 | 10925 ft | 302 kts | 339° |
| 2026-05-08 13:31 | 18.34545 | 73.30238 | 10806 ft | 303 kts | 339° |
| 2026-05-08 13:32 | 18.36647 | 73.29297 | 10738 ft | 301 kts | 339° |
| 2026-05-08 13:32 | 18.38714 | 73.28372 | 10696 ft | 301 kts | 339° |
| 2026-05-08 13:32 | 18.40723 | 73.27473 | 10678 ft | 301 kts | 339° |
| 2026-05-08 13:32 | 18.42677 | 73.26598 | 10704 ft | 302 kts | 339° |
| 2026-05-08 13:33 | 18.44624 | 73.25726 | 10675 ft | 301 kts | 339° |
| 2026-05-08 13:33 | 18.46549 | 73.24863 | 10657 ft | 301 kts | 339° |
| 2026-05-08 13:33 | 18.48478 | 73.23999 | 10656 ft | 301 kts | 339° |
| 2026-05-08 13:33 | 18.50429 | 73.23125 | 10654 ft | 301 kts | 339° |
| 2026-05-08 13:34 | 18.52357 | 73.22259 | 10673 ft | 294 kts | 339° |
| 2026-05-08 13:34 | 18.54276 | 73.21398 | 10461 ft | 289 kts | 340° |
| 2026-05-08 13:34 | 18.56219 | 73.20527 | 10075 ft | 288 kts | 340° |
| 2026-05-08 13:34 | 18.58092 | 73.19688 | 9752 ft | 286 kts | 340° |
| 2026-05-08 13:35 | 18.59950 | 73.18854 | 9422 ft | 285 kts | 340° |
| 2026-05-08 13:35 | 18.61768 | 73.18037 | 9119 ft | 284 kts | 340° |
| 2026-05-08 13:35 | 18.63594 | 73.17218 | 8810 ft | 283 kts | 340° |
| 2026-05-08 13:35 | 18.65408 | 73.16403 | 8516 ft | 281 kts | 340° |
| 2026-05-08 13:36 | 18.67248 | 73.15738 | 8189 ft | 276 kts | 350° |
| 2026-05-08 13:36 | 18.69131 | 73.15316 | 7895 ft | 273 kts | 352° |
| 2026-05-08 13:36 | 18.70976 | 73.14934 | 7713 ft | 264 kts | 352° |
| 2026-05-08 13:36 | 18.72762 | 73.14559 | 7596 ft | 257 kts | 352° |
| 2026-05-08 13:37 | 18.74530 | 73.14186 | 7242 ft | 256 kts | 352° |
| 2026-05-08 13:37 | 18.76276 | 73.13817 | 6837 ft | 258 kts | 351° |
| 2026-05-08 13:37 | 18.78021 | 73.13446 | 6632 ft | 252 kts | 351° |
| 2026-05-08 13:37 | 18.79752 | 73.13078 | 6345 ft | 250 kts | 352° |
| 2026-05-08 13:38 | 18.81458 | 73.12716 | 6038 ft | 248 kts | 351° |
| 2026-05-08 13:38 | 18.83129 | 73.12361 | 5753 ft | 246 kts | 351° |
| 2026-05-08 13:38 | 18.84830 | 73.12000 | 5474 ft | 244 kts | 351° |
| 2026-05-08 13:38 | 18.86474 | 73.11650 | 5198 ft | 242 kts | 351° |
| 2026-05-08 13:39 | 18.88155 | 73.11293 | 4897 ft | 241 kts | 350° |
| 2026-05-08 13:39 | 18.89788 | 73.10946 | 4635 ft | 239 kts | 350° |
| 2026-05-08 13:39 | 18.91418 | 73.10599 | 4398 ft | 236 kts | 350° |
| 2026-05-08 13:39 | 18.93033 | 73.10255 | 4157 ft | 233 kts | 349° |
| 2026-05-08 13:40 | 18.94579 | 73.09926 | 4144 ft | 219 kts | 349° |
| 2026-05-08 13:40 | 18.96043 | 73.09615 | 4052 ft | 210 kts | 349° |
| 2026-05-08 13:40 | 18.97476 | 73.09310 | 3809 ft | 209 kts | 349° |
| 2026-05-08 13:40 | 18.98928 | 73.09001 | 3525 ft | 209 kts | 349° |
| 2026-05-08 13:41 | 19.00340 | 73.08701 | 3307 ft | 206 kts | 348° |
| 2026-05-08 13:41 | 19.01659 | 73.08420 | 3079 ft | 205 kts | 348° |
| 2026-05-08 13:41 | 19.03062 | 73.08121 | 2835 ft | 203 kts | 347° |
| 2026-05-08 13:41 | 19.04433 | 73.07829 | 2770 ft | 199 kts | 347° |
| 2026-05-08 13:42 | 19.05779 | 73.07542 | 2732 ft | 189 kts | 347° |
| 2026-05-08 13:42 | 19.07058 | 73.07270 | 2734 ft | 183 kts | 347° |
| 2026-05-08 13:42 | 19.08247 | 73.06805 | 2724 ft | 182 kts | 322° |
| 2026-05-08 13:42 | 19.09027 | 73.05742 | 2718 ft | 185 kts | 291° |
| 2026-05-08 13:43 | 19.09152 | 73.04369 | 2739 ft | 193 kts | 274° |
| 2026-05-08 13:43 | 19.09101 | 73.02927 | 2673 ft | 197 kts | 273° |
| 2026-05-08 13:43 | 19.09066 | 73.01486 | 2423 ft | 196 kts | 274° |
| 2026-05-08 13:43 | 19.09045 | 73.00031 | 2180 ft | 194 kts | 275° |
| 2026-05-08 13:44 | 19.09026 | 72.98570 | 1937 ft | 193 kts | 275° |
| 2026-05-08 13:44 | 19.09006 | 72.97106 | 1692 ft | 191 kts | 275° |
| 2026-05-08 13:44 | 19.08989 | 72.95720 | 1456 ft | 189 kts | 275° |
| 2026-05-08 13:44 | 19.08970 | 72.94364 | 1229 ft | 184 kts | 274° |
| 2026-05-08 13:45 | 19.08952 | 72.93039 | 999 ft | 172 kts | 274° |
| 2026-05-08 13:45 | 19.08937 | 72.91831 | 797 ft | 162 kts | 274° |
| 2026-05-08 13:45 | 19.08922 | 72.90642 | 588 ft | 159 kts | 273° |
| 2026-05-08 13:45 | 19.08911 | 72.89478 | 387 ft | 158 kts | 273° |
| 2026-05-08 13:46 | 19.08894 | 72.88330 | 198 ft | 157 kts | 272° |
| 2026-05-08 13:46 | 19.08874 | 72.87166 | 37 ft | 154 kts | 271° |
| 2026-05-08 13:46 | 19.08864 | 72.86201 | 37 ft | 111 kts | 269° |
| 2026-05-08 13:46 | 19.08853 | 72.85544 | 31 ft | 66 kts | 270° |
| 2026-05-08 13:47 | 19.08849 | 72.85225 | 28 ft | 15 kts | 269° |
| 2026-05-08 13:47 | 19.08855 | 72.85177 | 28 ft | 6 kts | 288° |
| 2026-05-08 13:47 | 19.08885 | 72.85140 | 28 ft | 6 kts | 330° |
| 2026-05-08 13:47 | 19.08933 | 72.85126 | 29 ft | 7 kts | 354° |
| 2026-05-08 13:48 | 19.08986 | 72.85126 | 30 ft | 7 kts | 0° |
| 2026-05-08 13:48 | 19.09045 | 72.85126 | 31 ft | 6 kts | 359° |
| 2026-05-08 13:48 | 19.09082 | 72.85149 | 32 ft | 6 kts | 58° |
| 2026-05-08 13:48 | 19.09091 | 72.85193 | 33 ft | 6 kts | 92° |
| 2026-05-08 13:49 | 19.09089 | 72.85246 | 34 ft | 7 kts | 92° |
| 2026-05-08 13:49 | 19.09087 | 72.85309 | 35 ft | 8 kts | 90° |
| 2026-05-08 13:49 | 19.09083 | 72.85377 | 35 ft | 10 kts | 120° |
| 2026-05-08 13:49 | 19.09030 | 72.85438 | 34 ft | 12 kts | 110° |
| 2026-05-08 13:50 | 19.09023 | 72.85540 | 34 ft | 14 kts | 88° |
| 2026-05-08 13:50 | 19.09026 | 72.85654 | 34 ft | 15 kts | 89° |
| 2026-05-08 13:50 | 19.09027 | 72.85777 | 34 ft | 17 kts | 89° |
| 2026-05-08 13:50 | 19.09029 | 72.85909 | 36 ft | 17 kts | 88° |
| 2026-05-08 13:51 | 19.09033 | 72.86050 | 37 ft | 18 kts | 88° |
| 2026-05-08 13:51 | 19.09032 | 72.86192 | 37 ft | 19 kts | 90° |
| 2026-05-08 13:51 | 19.09058 | 72.86334 | 38 ft | 19 kts | 58° |
| 2026-05-08 13:51 | 19.09150 | 72.86448 | 38 ft | 20 kts | 49° |
| 2026-05-08 13:52 | 19.09247 | 72.86565 | 39 ft | 19 kts | 49° |
| 2026-05-08 13:52 | 19.09343 | 72.86678 | 40 ft | 20 kts | 48° |
| 2026-05-08 13:52 | 19.09418 | 72.86767 | 42 ft | 8 kts | 51° |
| 2026-05-08 13:52 | 19.09460 | 72.86784 | 42 ft | 6 kts | 332° |
| 2026-05-08 13:53 | 19.09502 | 72.86754 | 43 ft | 7 kts | 323° |
| 2026-05-08 13:53 | 19.09507 | 72.86749 | 43 ft | 0 kts | 321° |
| 2026-05-08 15:38 | 39.02875 | -84.65501 | 893 ft | 0 kts | 0° |